• Join FlightAware (Why Join?)
  • Login
  • US Flag 
01:13PM EDT


 

Airport Tracker/Info


-or-


 

Live Flight TrackerFlight Track Log ✈ AWE3287 ✈ 02-May-2013 ✈ KMHT - KPHL

Flight Track Log - Related Links

Times and Time Zones

All times are in EDT time to prevent confusion due to time zone crossing. See the AWE3287 flight status page for this flight to view local times or setup timezone preferences in your user account.

Time Position Orientation Groundspeed Altitude Reporting Facility
EDT Latitude Longitude Course Direction KTS MPH feet Rate Location/Type
12:10PM 42.9500 -71.4167 270° West 145 167 1,000  Level KA90
12:11PM 42.9772 -71.4100 10° North 190 219 1,800 1,440 Climbing Boston Center
12:12PM 43.0250 -71.4092 North 252 290 3,300 2,520 Climbing Boston Center
12:13PM 42.9333 -71.7874 270° West  Level FlightAware Approximate
12:13PM 43.0386 -71.5169 280° West 197 227 6,900  Level Boston Center
12:14PM 42.9500 -71.9032 270° West  Level FlightAware Approximate
12:14PM 43.0394 -71.6333 271° West 261 300 10,300  Level Boston Center
12:15PM 42.9500 -72.0219 270° West  Level FlightAware Approximate
12:15PM 43.0361 -71.7556 268° West 314 361 11,600  Level Boston Center
12:16PM 42.9500 -72.1633 270° West  Level FlightAware Approximate
12:16PM 43.0328 -71.9261 269° West 367 422 14,400  Level Boston Center
12:17PM 43.0311 -72.0594 269° West 389 448 16,300 1,860 Climbing Boston Center
12:18PM 43.0256 -72.2497 268° West 414 476 18,600 2,280 Climbing Boston Center
12:19PM 43.0236 -72.4231 269° West 414 476 20,900 2,160 Climbing Boston Center
12:20PM 43.0256 -72.5819 271° West 426 490 23,000 1,740 Climbing Boston Center
12:21PM 43.0128 -72.7467 264° West 426 490 24,400 1,260 Climbing Boston Center
12:23PM 43.0081 -72.9142 268° West 439 505 25,800 720 Climbing Boston Center
12:24PM 42.9944 -73.1044 264° West 449 517 26,000 60 Climbing Boston Center
12:25PM 42.9353 -73.2569 242° Southwest 449 517 26,000  Level Boston Center
12:26PM 42.8694 -73.3892 236° Southwest 455 524 26,000  Level Boston Center
12:27PM 42.8033 -73.5578 242° Southwest 467 537 26,000  Level Boston Center
12:28PM 42.7372 -73.7094 239° Southwest 473 544 26,000  Level Boston Center
12:29PM 42.6603 -73.8744 238° Southwest 473 544 26,000  Level Boston Center
12:30PM 42.5936 -74.0278 239° Southwest 467 537 26,000  Level Boston Center
12:31PM 42.5158 -74.2089 240° Southwest 467 537 26,000  Level Boston Center
12:32PM 42.4508 -74.3592 240° Southwest 467 537 26,000  Level Boston Center
12:33PM 42.3794 -74.5144 238° Southwest 472 543 26,000  Level Boston Center
12:34PM 42.3017 -74.6550 233° Southwest 472 543 26,000 -780 Level Boston Center
12:36PM 42.1394 -74.8850 226° Southwest 470 541 23,900 -1,560 Descending New York Center
12:37PM 42.0667 -74.9950 228° Southwest 461 531 21,700 -2,280 Descending New York Center
12:38PM 41.9814 -75.1122 226° Southwest 445 512 19,500 -1,380 Descending New York Center
12:39PM 41.8739 -75.2081 214° Southwest 434 499 19,000 -600 Descending New York Center
12:40PM 41.7706 -75.2931 212° Southwest 434 499 18,400 -1,020 Descending New York Center
12:41PM 41.6739 -75.3697 211° Southwest 434 499 17,000 -1,980 Descending New York Center
12:42PM 41.5881 -75.4386 211° Southwest 413 475 14,600 -2,220 Descending New York Center
12:43PM 41.4869 -75.5203 211° Southwest 396 456 12,600 -1,320 Descending New York Center
12:44PM 41.3986 -75.5914 211° Southwest 385 443 12,000 -300 Descending New York Center
12:45PM 41.3211 -75.6522 211° Southwest 385 443 12,000  Level New York Center
12:46PM 41.2111 -75.6911 195° South 356 410 12,000  Level New York Center
12:47PM 41.1197 -75.6872 178° South 366 421 12,000  Level New York Center
12:48PM 41.0156 -75.6881 180° South 372 428 12,000  Level New York Center
12:49PM 40.9114 -75.6861 179° South 377 434 12,000  Level New York Center
12:50PM 40.7994 -75.6725 175° South 377 434 12,000  Level New York Center
12:51PM 40.6333 -75.5667 154° Southeast 367 422 12,000  Level Philadelphia TRACON
12:52PM 40.6272 -75.5561 127° Southeast 373 429 12,000 -840 Level New York Center
12:53PM 40.5419 -75.4983 153° Southeast 364 419 11,000 -1,020 Descending New York Center
12:54PM 40.4631 -75.4411 151° Southeast 312 359 10,100 -780 Descending New York Center
12:55PM 40.3875 -75.3978 156° South 297 342 9,500 -900 Descending New York Center
12:56PM 40.2833 -75.4500 201° Southwest 253 291 7,700 -960 Descending Philadelphia TRACON
12:57PM 40.2333 -75.5167 226° Southwest 249 287 7,000 -600 Descending Philadelphia TRACON
12:58PM 40.2325 -75.5233 261° West 239 275 7,000 60 Level New York Center
12:59PM 40.1725 -75.5628 207° Southwest 223 257 7,100 -420 Climbing New York Center
01:00PM 40.1311 -75.5031 132° Southeast 183 211 6,200 -600 Descending New York Center
01:01PM 40.0875 -75.4511 138° Southeast 203 234 6,000 -120 Descending New York Center
01:02PM 40.0367 -75.4150 151° Southeast 217 250 6,000  Level New York Center
01:03PM 39.9792 -75.3950 165° South 217 250 6,000  Level New York Center
01:04PM 39.9406 -75.4222 208° Southwest 186 214 6,000  Level New York Center
01:05PM 39.9672 -75.4836 300° West 125 144 6,100  Climbing New York Center
01:06PM 40.0122 -75.4569 24° Northeast 113 130 6,100 -60 Level New York Center
01:07PM 39.9500 -75.4333 164° South 194 223 6,000 -60 Descending Philadelphia TRACON
01:08PM 39.9333 -75.5000 252° West 200 230 6,000  Level Philadelphia TRACON
01:09PM 39.9167 -75.5833 255° West 201 231 6,000 -360 Level Philadelphia TRACON
01:10PM 39.9000 -75.6500 252° West 197 227 5,300 -540 Descending Philadelphia TRACON
01:11PM 39.8667 -75.6833 218° Southwest 179 206 4,900 -660 Descending Philadelphia TRACON
01:12PM 39.8167 -75.6667 166° South 173 199 4,000 -480 Descending Philadelphia TRACON
01:13PM 39.8000 -75.6167 113° Southeast 168 193 4,000  Level Philadelphia TRACON
01:14PM 39.8000 -75.5667 90° East 168 193 4,000 -240 Level Philadelphia TRACON
01:15PM 39.8167 -75.5000 72° East 166 191 3,600 -660 Descending Philadelphia TRACON
01:16PM 39.8333 -75.4500 67° East 168 193 2,800 -960 Descending Philadelphia TRACON
01:17PM 39.8333 -75.3833 90° East 168 193 1,700 -1,020 Descending Philadelphia TRACON